Pagina principale
METAR-TAF:

METAR-TAF

Aeroporti :

Peer, Belgio

latitudine: 51-10N, longitudine: 005-28E, altezza: 55 m

Osservazione

Il bollettino è stato emesso 28 minuti fa, alle 13:25 UTC
Vento 3 kt da nord/nord-est
Temperature 34°C
Umidità 30%
Pressione 1019 hPa
Visibilità 10 km o più
Poco nuvoloso ad un'altezza di 30000 ft

METAR: EBBL 231325Z 02003KT 9999 FEW300 34/14 Q1019 BLU BLU

Ora: 15:53 (13:53 UTC)

Previsione

Il bollettino è stato emesso 2 ore e 12 minuti fa, alle 11:41 UTC
Previsione valida dal 23 alle 13 UTC al 23 alle 22 UTC
Vento 3 kt da direzioni variabili
Poco nuvoloso ad un'altezza di 33000 ft
Temporaneamente
dal 23 alle 15 UTC al 23 alle 22 UTC
Vento 5 kt da est/sud-est
Poco nuvoloso ad un'altezza di 5000 ft
Nubi sparse ad un'altezza di 30000 ft

TAF: EBBL 231141Z 2313/2322 VRB03KT FEW330 TEMPO 2315/2322 11005KT FEW050 SCT300

Osservazioni e previsioni meteorologiche di più di 4000 aeroporti (messaggi METAR e TAF).

Le stazioni disponibili sono rappresentate dai dischi gialli e rossi sulla carta.

Puntare il mouse per vedere il nome della stazione.

Clicca sopra per visualizzare le osservazioni e previsioni meteorologiche.

Per cambiare la mappa : fare clic sui pulsanti verdi con una croce nera per ingrandire, il pulsante verde con un trattino per diminuire, o sulla freccia verde per le mappe adiacenti.


METAR-TAF: